Time;durP1;ratioP1;P1;durP2;ratioP2;P2;SDS_P1;SDS_P2;PMS_P1;PMS_P2;Temp;Humidity;BMP_temperature;BMP_pressure;BME280_temperature;BME280_humidity;BME280_pressure;Samples;Min_cycle;Max_cycle;Signal;HPM_P1;HPM_P2
2021/01/12 00:00:17;;;;;;;44.40;40.22;;;5.60;1.00;;;;;;5017138;28;20229;-70
2021/01/12 00:02:43;;;;;;;44.70;40.95;;;5.60;1.00;;;;;;5017204;28;20159;-70
2021/01/12 00:05:10;;;;;;;35.67;32.27;;;5.60;1.00;;;;;;5017420;28;20496;-70
2021/01/12 00:07:35;;;;;;;40.40;36.60;;;5.60;1.00;;;;;;5016935;28;20426;-70
2021/01/12 00:10:01;;;;;;;39.03;35.57;;;5.60;1.00;;;;;;5016127;28;20218;-70
2021/01/12 00:12:27;;;;;;;42.57;38.50;;;5.60;1.00;;;;;;5017612;28;20221;-70
2021/01/12 00:14:52;;;;;;;42.20;38.43;;;5.60;1.00;;;;;;5016446;28;20225;-70
2021/01/12 00:17:18;;;;;;;49.23;45.10;;;5.60;1.00;;;;;;5016999;28;20402;-69
2021/01/12 00:19:44;;;;;;;43.07;39.30;;;5.60;1.00;;;;;;5017043;28;20202;-69
2021/01/12 00:22:14;;;;;;;43.13;39.47;;;5.70;1.00;;;;;;5017377;28;20605;-70
2021/01/12 00:24:50;;;;;;;42.97;39.75;;;5.70;1.00;;;;;;5017209;28;20151;-70
2021/01/12 00:27:20;;;;;;;48.97;45.00;;;5.60;1.00;;;;;;5016592;28;20175;-69
2021/01/12 00:29:46;;;;;;;50.25;46.03;;;5.60;1.00;;;;;;5016884;28;20203;-70
2021/01/12 00:32:17;;;;;;;44.60;40.87;;;5.60;1.00;;;;;;5015397;28;20198;-70
2021/01/12 00:34:43;;;;;;;43.28;39.47;;;5.70;1.00;;;;;;5016765;28;20449;-70
2021/01/12 00:37:09;;;;;;;44.33;40.08;;;5.60;1.00;;;;;;5017001;28;20178;-69
2021/01/12 00:39:34;;;;;;;44.77;40.90;;;5.70;1.00;;;;;;5016780;28;20191;-69
2021/01/12 00:42:00;;;;;;;46.83;42.60;;;5.70;1.00;;;;;;5015162;28;20185;-70
2021/01/12 00:44:26;;;;;;;46.97;42.77;;;5.70;1.00;;;;;;5016714;28;20176;-69
2021/01/12 00:46:53;;;;;;;44.42;39.92;;;5.80;1.00;;;;;;5015224;28;20282;-69
2021/01/12 00:49:20;;;;;;;41.28;37.17;;;5.80;1.00;;;;;;5016613;28;20672;-70
2021/01/12 00:51:46;;;;;;;47.13;42.88;;;5.80;1.00;;;;;;5016279;28;20625;-69
2021/01/12 00:54:17;;;;;;;51.80;47.45;;;5.80;1.00;;;;;;5016689;28;20229;-69
2021/01/12 00:56:43;;;;;;;47.90;44.05;;;5.80;1.00;;;;;;5015495;28;20606;-69
2021/01/12 00:59:09;;;;;;;49.47;45.15;;;5.80;1.00;;;;;;5016067;28;20203;-69
2021/01/12 01:01:36;;;;;;;51.87;47.47;;;5.80;1.00;;;;;;5015185;28;20637;-69
2021/01/12 01:04:03;;;;;;;46.78;42.63;;;5.80;1.00;;;;;;5016342;28;20190;-69
2021/01/12 01:06:29;;;;;;;47.67;43.40;;;5.80;1.00;;;;;;5015963;28;20687;-69
2021/01/12 01:08:54;;;;;;;43.60;38.90;;;5.80;1.00;;;;;;5015628;28;20293;-70
2021/01/12 01:11:20;;;;;;;47.10;42.90;;;5.80;1.00;;;;;;5016121;28;20183;-69
2021/01/12 01:13:46;;;;;;;47.23;42.63;;;5.80;1.00;;;;;;5016272;28;20187;-69
2021/01/12 01:16:12;;;;;;;49.55;44.95;;;5.90;1.00;;;;;;5015728;28;20187;-70
2021/01/12 01:18:38;;;;;;;42.03;37.93;;;5.90;1.00;;;;;;5015770;28;20202;-69
2021/01/12 01:21:04;;;;;;;52.50;47.97;;;5.90;1.00;;;;;;5016390;28;20175;-69
2021/01/12 01:23:29;;;;;;;49.23;45.13;;;5.90;1.00;;;;;;5016501;28;20175;-70
2021/01/12 01:25:55;;;;;;;48.57;44.27;;;5.90;1.00;;;;;;5015579;28;20414;-69
2021/01/12 01:28:22;;;;;;;40.67;36.97;;;5.90;1.00;;;;;;5015510;28;20230;-69
2021/01/12 01:30:48;;;;;;;45.03;41.05;;;6.00;1.00;;;;;;5015701;28;20174;-70
2021/01/12 01:33:13;;;;;;;42.35;38.55;;;5.90;1.00;;;;;;5015817;28;20210;-69
2021/01/12 01:35:41;;;;;;;46.80;42.03;;;6.00;1.00;;;;;;5015463;28;20625;-69
2021/01/12 01:38:06;;;;;;;43.45;39.25;;;6.00;1.00;;;;;;5015847;28;20207;-69
2021/01/12 01:40:32;;;;;;;44.07;40.23;;;6.00;1.00;;;;;;5015281;28;20225;-69
2021/01/12 01:42:57;;;;;;;43.37;39.43;;;6.00;1.00;;;;;;5015495;28;20175;-69
2021/01/12 01:45:24;;;;;;;42.63;38.23;;;6.00;1.00;;;;;;5015611;28;20171;-69
2021/01/12 01:47:51;;;;;;;44.05;39.95;;;6.00;1.00;;;;;;5014934;28;20171;-69
2021/01/12 01:50:18;;;;;;;48.63;44.42;;;6.00;1.00;;;;;;5015774;28;20190;-69
2021/01/12 01:52:49;;;;;;;40.10;36.58;;;6.00;1.00;;;;;;5015385;28;20178;-70
2021/01/12 01:55:15;;;;;;;39.28;35.53;;;6.00;1.00;;;;;;5015404;28;20250;-70
2021/01/12 01:57:41;;;;;;;47.85;43.75;;;6.00;1.00;;;;;;5014818;28;20171;-70
2021/01/12 02:00:08;;;;;;;41.13;37.60;;;6.00;1.00;;;;;;5014889;28;20194;-69
2021/01/12 02:02:38;;;;;;;40.30;36.25;;;6.00;1.00;;;;;;5014787;28;20177;-69
2021/01/12 02:05:09;;;;;;;35.03;31.80;;;6.10;1.00;;;;;;5015422;28;20262;-70
2021/01/12 02:07:36;;;;;;;37.38;33.88;;;6.00;1.00;;;;;;5014694;28;20195;-69
2021/01/12 02:10:02;;;;;;;38.72;35.35;;;6.10;1.00;;;;;;5014215;28;20298;-69
2021/01/12 02:12:34;;;;;;;40.80;37.05;;;6.10;1.00;;;;;;5014615;28;20171;-69
2021/01/12 02:15:03;;;;;;;33.38;30.58;;;6.10;1.00;;;;;;5015072;28;20653;-69
2021/01/12 02:17:30;;;;;;;40.45;36.63;;;6.10;1.00;;;;;;5015023;28;20179;-69
2021/01/12 02:19:56;;;;;;;42.17;38.60;;;6.10;1.00;;;;;;5014942;28;20253;-70
2021/01/12 02:22:24;;;;;;;38.13;34.92;;;6.00;1.00;;;;;;5014801;28;20199;-69
2021/01/12 02:24:50;;;;;;;36.85;33.63;;;6.00;1.00;;;;;;5015079;28;20183;-70
2021/01/12 02:27:19;;;;;;;45.67;42.17;;;6.10;1.00;;;;;;5014750;28;20261;-70
2021/01/12 02:29:45;;;;;;;42.58;39.22;;;6.10;1.00;;;;;;5014477;28;20233;-69
2021/01/12 02:32:11;;;;;;;41.73;38.37;;;6.10;1.00;;;;;;5014927;28;20195;-69
2021/01/12 02:34:38;;;;;;;42.22;38.42;;;6.10;1.00;;;;;;5014694;28;20250;-69
2021/01/12 02:37:04;;;;;;;39.70;36.05;;;6.10;1.00;;;;;;5014323;28;20218;-69
2021/01/12 02:39:30;;;;;;;31.38;28.27;;;6.10;1.00;;;;;;5014549;28;20202;-69
2021/01/12 02:41:55;;;;;;;33.03;30.00;;;6.10;1.00;;;;;;5014504;28;20175;-70
2021/01/12 02:44:25;;;;;;;37.43;34.37;;;6.10;1.00;;;;;;5014654;28;20179;-69
2021/01/12 02:46:55;;;;;;;39.30;36.15;;;6.10;1.00;;;;;;5014295;28;20171;-69
2021/01/12 02:49:21;;;;;;;43.05;39.47;;;6.10;1.00;;;;;;5014348;28;20203;-69
2021/01/12 02:51:47;;;;;;;34.50;31.17;;;6.10;1.00;;;;;;5014421;28;20615;-69
2021/01/12 02:54:12;;;;;;;33.73;30.83;;;6.10;1.00;;;;;;5014451;28;20229;-69
2021/01/12 02:56:38;;;;;;;35.60;32.60;;;6.10;1.00;;;;;;5013520;28;20167;-70
2021/01/12 02:59:04;;;;;;;34.83;32.00;;;6.20;1.00;;;;;;5013977;28;20566;-69
2021/01/12 03:01:29;;;;;;;36.87;33.87;;;6.20;1.00;;;;;;5014714;28;20630;-70
2021/01/12 03:03:55;;;;;;;34.97;31.63;;;6.10;1.00;;;;;;5014284;28;20555;-70
2021/01/12 03:06:23;;;;;;;34.93;31.73;;;6.10;1.00;;;;;;5013928;28;20179;-68
2021/01/12 03:08:48;;;;;;;34.22;31.30;;;6.20;1.00;;;;;;5013716;28;20218;-69
2021/01/12 03:11:14;;;;;;;31.93;28.80;;;6.20;1.00;;;;;;5013861;28;20203;-69
2021/01/12 03:13:39;;;;;;;33.63;31.13;;;6.20;1.00;;;;;;5014385;28;20170;-69
2021/01/12 03:16:05;;;;;;;34.70;31.60;;;6.20;1.00;;;;;;5012429;28;20217;-69
2021/01/12 03:18:31;;;;;;;36.53;33.53;;;6.20;1.00;;;;;;5013916;28;20222;-69
2021/01/12 03:20:58;;;;;;;38.83;35.43;;;6.30;1.00;;;;;;5015653;28;20198;-69
2021/01/12 03:23:24;;;;;;;39.95;36.40;;;6.30;1.00;;;;;;5017921;28;20174;-70
2021/01/12 03:25:49;;;;;;;36.97;34.00;;;6.20;1.00;;;;;;5018001;28;20174;-70
2021/01/12 03:28:15;;;;;;;34.10;31.17;;;6.30;1.00;;;;;;5018201;28;20295;-69
2021/01/12 03:30:40;;;;;;;37.37;34.37;;;6.30;1.00;;;;;;5017694;28;20174;-69
2021/01/12 03:33:06;;;;;;;38.10;34.90;;;6.30;1.00;;;;;;5017707;28;20171;-69
2021/01/12 03:35:31;;;;;;;39.13;35.03;;;6.40;1.00;;;;;;5017799;28;20632;-69
2021/01/12 03:37:57;;;;;;;37.30;34.30;;;6.30;1.00;;;;;;5017707;28;20205;-69
2021/01/12 03:40:23;;;;;;;37.93;34.80;;;6.30;1.00;;;;;;5017921;28;20715;-69
2021/01/12 03:42:49;;;;;;;36.63;33.80;;;6.40;1.00;;;;;;5018169;28;20511;-69
2021/01/12 03:45:14;;;;;;;39.00;35.90;;;6.40;1.00;;;;;;5018066;28;20179;-69
2021/01/12 03:47:40;;;;;;;37.63;34.30;;;6.40;1.00;;;;;;5017156;28;20245;-69
2021/01/12 03:50:07;;;;;;;33.57;30.70;;;6.50;1.00;;;;;;5017496;28;20273;-69
2021/01/12 03:52:33;;;;;;;31.40;28.40;;;6.50;1.00;;;;;;5017199;28;20174;-69
2021/01/12 03:54:59;;;;;;;35.43;32.23;;;6.50;1.00;;;;;;5017655;28;20530;-69
2021/01/12 03:57:25;;;;;;;31.13;28.52;;;6.50;1.00;;;;;;5017277;28;20508;-69
2021/01/12 03:59:51;;;;;;;35.77;33.07;;;6.50;1.00;;;;;;5015796;28;20293;-69
2021/01/12 04:02:16;;;;;;;33.77;31.00;;;6.50;1.00;;;;;;5017177;28;20560;-69
2021/01/12 04:04:43;;;;;;;31.53;28.80;;;6.50;1.00;;;;;;5017337;28;20254;-69
2021/01/12 04:07:09;;;;;;;32.30;29.63;;;6.40;1.00;;;;;;5017155;28;20171;-69
2021/01/12 04:09:34;;;;;;;32.33;29.43;;;6.50;1.00;;;;;;5017556;28;20250;-69
2021/01/12 04:12:00;;;;;;;30.73;28.10;;;6.50;1.00;;;;;;5017539;28;20159;-70
2021/01/12 04:14:25;;;;;;;29.07;26.30;;;6.50;1.00;;;;;;5016846;28;20190;-69
2021/01/12 04:16:51;;;;;;;27.37;24.90;;;6.50;1.00;;;;;;5016876;28;20236;-69
2021/01/12 04:19:16;;;;;;;32.07;29.40;;;6.40;1.00;;;;;;5015729;28;20198;-70
2021/01/12 04:21:42;;;;;;;26.83;24.53;;;6.50;1.00;;;;;;5017049;28;20182;-70
2021/01/12 04:24:08;;;;;;;29.87;27.40;;;6.50;1.00;;;;;;5016820;28;20229;-70
2021/01/12 04:26:33;;;;;;;28.17;25.70;;;6.50;1.00;;;;;;5016718;28;20209;-69
2021/01/12 04:28:59;;;;;;;24.97;22.77;;;6.50;1.00;;;;;;5015538;28;20679;-69
2021/01/12 04:31:25;;;;;;;30.07;27.93;;;6.50;1.00;;;;;;5016772;28;20510;-69
2021/01/12 04:33:51;;;;;;;30.08;27.98;;;6.50;1.00;;;;;;5016698;28;20171;-69
2021/01/12 04:36:17;;;;;;;29.87;27.37;;;6.50;1.00;;;;;;5016411;28;20167;-69
2021/01/12 04:38:42;;;;;;;28.03;25.60;;;6.50;1.00;;;;;;5016382;28;20936;-69
2021/01/12 04:41:08;;;;;;;30.20;27.80;;;6.60;1.00;;;;;;5017010;28;20175;-69
2021/01/12 04:43:33;;;;;;;30.53;28.10;;;6.60;1.00;;;;;;5017000;28;20175;-69
2021/01/12 04:45:59;;;;;;;33.43;31.00;;;6.60;1.00;;;;;;5016406;28;20665;-69
2021/01/12 04:48:26;;;;;;;31.90;29.40;;;6.50;1.00;;;;;;5016347;28;20195;-69
2021/01/12 04:51:08;;;;;;;31.70;29.25;;;6.50;1.00;;;;;;5016651;28;20170;-69
2021/01/12 04:53:47;;;;;;;28.92;26.42;;;6.50;1.00;;;;;;5016160;28;20194;-69
2021/01/12 04:56:20;;;;;;;25.42;23.40;;;6.50;1.00;;;;;;5014927;28;20250;-70
2021/01/12 04:58:47;;;;;;;28.35;26.27;;;6.60;1.00;;;;;;5016560;28;20262;-69
2021/01/12 05:01:15;;;;;;;31.85;29.55;;;6.60;1.00;;;;;;5015939;28;20171;-69
2021/01/12 05:03:45;;;;;;;30.50;28.48;;;6.60;1.00;;;;;;5016477;28;20199;-69
2021/01/12 05:06:15;;;;;;;28.67;26.77;;;6.60;1.00;;;;;;5016214;28;20164;-69
2021/01/12 05:08:46;;;;;;;32.40;30.30;;;6.60;1.00;;;;;;5016068;28;20601;-69
2021/01/12 05:11:12;;;;;;;25.30;23.25;;;6.60;1.00;;;;;;5015901;28;20167;-69
2021/01/12 05:13:43;;;;;;;27.42;25.23;;;6.60;1.00;;;;;;5016407;28;20182;-70
2021/01/12 05:16:09;;;;;;;29.75;27.45;;;6.60;1.00;;;;;;5015932;28;20595;-70
2021/01/12 05:18:38;;;;;;;26.45;24.58;;;6.70;1.00;;;;;;5014522;28;20297;-69
2021/01/12 05:21:06;;;;;;;22.48;20.63;;;6.60;1.00;;;;;;5015888;28;20634;-69
2021/01/12 05:23:47;;;;;;;27.75;25.63;;;6.60;1.00;;;;;;5014592;28;20184;-69
2021/01/12 05:26:15;;;;;;;28.70;26.70;;;6.60;1.00;;;;;;5015670;28;20155;-69
2021/01/12 05:28:41;;;;;;;27.60;25.60;;;6.60;1.00;;;;;;5015888;28;20310;-69
2021/01/12 05:31:11;;;;;;;28.15;26.05;;;6.60;1.00;;;;;;5016075;28;20261;-69
2021/01/12 05:33:40;;;;;;;23.88;22.02;;;6.60;1.00;;;;;;5015679;28;20168;-69
2021/01/12 05:36:06;;;;;;;28.45;26.65;;;6.60;1.00;;;;;;5015438;28;20171;-69
2021/01/12 05:38:33;;;;;;;26.05;24.33;;;6.60;1.00;;;;;;5015482;28;20214;-69
2021/01/12 05:41:01;;;;;;;27.45;25.70;;;6.60;1.00;;;;;;5015114;28;20258;-69
2021/01/12 05:43:43;;;;;;;27.63;25.83;;;6.60;1.00;;;;;;5015318;28;20530;-69
2021/01/12 05:46:11;;;;;;;24.00;22.40;;;6.60;1.00;;;;;;5015629;28;20167;-69
2021/01/12 05:48:39;;;;;;;22.85;21.25;;;6.70;1.00;;;;;;5015209;28;20199;-69
2021/01/12 05:51:10;;;;;;;26.15;24.30;;;6.70;1.00;;;;;;5015341;28;20172;-69
2021/01/12 05:53:48;;;;;;;25.70;23.60;;;6.70;1.00;;;;;;5015458;28;20695;-69
2021/01/12 05:56:21;;;;;;;22.90;21.20;;;6.70;1.00;;;;;;5014865;28;20170;-69
2021/01/12 05:58:55;;;;;;;21.40;19.85;;;6.70;1.00;;;;;;5015067;28;20244;-70
2021/01/12 06:01:27;;;;;;;23.42;21.73;;;6.70;1.00;;;;;;5015220;28;20214;-70
2021/01/12 06:03:53;;;;;;;21.25;19.75;;;6.70;1.00;;;;;;5015280;28;20501;-69
2021/01/12 06:06:19;;;;;;;21.70;20.30;;;6.70;1.00;;;;;;5014818;28;20638;-69
2021/01/12 06:08:49;;;;;;;20.17;18.70;;;6.70;1.00;;;;;;5014642;28;20462;-69
2021/01/12 06:11:17;;;;;;;21.80;20.50;;;6.70;1.00;;;;;;5015723;28;20167;-69
2021/01/12 06:14:00;;;;;;;19.02;17.63;;;6.70;1.00;;;;;;5014741;28;20175;-69
2021/01/12 06:16:32;;;;;;;22.77;21.38;;;6.70;1.00;;;;;;5014660;28;20178;-69
2021/01/12 06:19:08;;;;;;;21.58;20.38;;;6.70;1.00;;;;;;5013344;28;20281;-69
2021/01/12 06:21:53;;;;;;;22.70;21.58;;;6.70;1.00;;;;;;5014820;28;20175;-70
2021/01/12 06:24:38;;;;;;;25.30;24.10;;;6.70;1.00;;;;;;5014771;28;20230;-70
2021/01/12 06:27:14;;;;;;;24.10;22.80;;;6.80;1.00;;;;;;5014988;28;20174;-69
2021/01/12 06:29:50;;;;;;;20.60;19.30;;;6.70;1.00;;;;;;5014206;28;20209;-69
2021/01/12 06:32:21;;;;;;;25.50;24.20;;;6.70;1.00;;;;;;5014738;28;20171;-69
2021/01/12 06:34:52;;;;;;;19.65;18.55;;;6.80;1.00;;;;;;5014823;28;20167;-70
2021/01/12 06:37:19;;;;;;;24.45;23.17;;;6.70;1.00;;;;;;5014243;28;20172;-70
2021/01/12 06:39:53;;;;;;;34.33;19.55;;;6.80;1.00;;;;;;5014826;28;20195;-70
2021/01/12 06:42:38;;;;;;;26.00;24.40;;;6.80;1.00;;;;;;5014000;28;20175;-70
2021/01/12 06:45:06;;;;;;;24.45;23.33;;;6.80;1.00;;;;;;5014672;28;20257;-69
2021/01/12 06:47:33;;;;;;;21.52;20.52;;;6.80;1.00;;;;;;5014471;28;20254;-69
2021/01/12 06:50:05;;;;;;;21.13;20.13;;;6.80;1.00;;;;;;5014294;28;20207;-69
2021/01/12 06:52:36;;;;;;;18.25;17.38;;;6.70;1.00;;;;;;5014498;28;20250;-69
2021/01/12 06:55:07;;;;;;;19.27;18.52;;;6.70;1.00;;;;;;5013886;28;20203;-70
2021/01/12 06:57:33;;;;;;;16.70;15.70;;;6.70;1.00;;;;;;5014007;28;20190;-70
2021/01/12 06:59:59;;;;;;;21.42;20.50;;;6.60;1.00;;;;;;5014410;28;20282;-69
2021/01/12 07:02:25;;;;;;;21.27;20.30;;;6.60;1.00;;;;;;5013337;28;20210;-70
2021/01/12 07:05:01;;;;;;;18.05;17.17;;;6.60;1.00;;;;;;5014681;28;20175;-70
2021/01/12 07:07:28;;;;;;;18.52;17.52;;;6.50;1.00;;;;;;5013838;28;20178;-70
2021/01/12 07:09:55;;;;;;;18.13;16.63;;;6.50;1.00;;;;;;5014363;28;20595;-70
2021/01/12 07:12:23;;;;;;;20.30;19.60;;;6.50;1.00;;;;;;5014719;28;20171;-70
2021/01/12 07:14:53;;;;;;;16.05;15.45;;;6.40;1.00;;;;;;5014433;28;20193;-70
2021/01/12 07:17:26;;;;;;;22.02;20.85;;;6.40;1.00;;;;;;5013745;28;20163;-70
2021/01/12 07:20:09;;;;;;;18.10;16.75;;;6.30;1.00;;;;;;5013353;28;20203;-70
2021/01/12 07:22:36;;;;;;;20.50;19.42;;;6.30;1.00;;;;;;5014063;28;20171;-70
2021/01/12 07:25:05;;;;;;;17.15;16.25;;;6.20;1.00;;;;;;5014211;28;20179;-69
2021/01/12 07:27:30;;;;;;;18.92;18.00;;;6.10;1.00;;;;;;5014173;28;20167;-70
2021/01/12 07:29:56;;;;;;;17.10;15.67;;;5.90;1.00;;;;;;5014161;28;20211;-70
2021/01/12 07:32:28;;;;;;;26.17;24.73;;;5.80;1.00;;;;;;5014360;28;20174;-69
2021/01/12 07:34:56;;;;;;;18.92;17.92;;;5.60;1.00;;;;;;5014167;28;20171;-69
2021/01/12 07:37:30;;;;;;;17.65;16.85;;;5.60;1.00;;;;;;5012316;28;20186;-69
2021/01/12 07:39:56;;;;;;;22.13;20.90;;;5.60;1.00;;;;;;5013550;28;20203;-70
2021/01/12 07:42:22;;;;;;;17.73;16.50;;;5.50;1.00;;;;;;5013851;28;20183;-69
2021/01/12 07:44:47;;;;;;;17.30;16.50;;;5.40;1.00;;;;;;5013950;28;20410;-70
2021/01/12 07:47:14;;;;;;;21.13;19.83;;;5.40;1.00;;;;;;5013450;28;20167;-70
2021/01/12 07:49:41;;;;;;;18.90;17.92;;;5.30;1.00;;;;;;5013693;28;20560;-69
2021/01/12 07:52:08;;;;;;;17.10;16.23;;;5.30;1.00;;;;;;5013962;28;20179;-70
2021/01/12 07:54:35;;;;;;;27.90;26.80;;;5.20;1.00;;;;;;5013548;28;20213;-69
2021/01/12 07:57:01;;;;;;;19.80;18.67;;;5.20;1.00;;;;;;5013299;28;20170;-69
2021/01/12 07:59:27;;;;;;;22.33;21.23;;;5.10;1.00;;;;;;5013388;28;20187;-69
2021/01/12 08:01:54;;;;;;;22.85;21.55;;;5.20;1.00;;;;;;5014386;28;20650;-73
2021/01/12 08:04:20;;;;;;;21.95;20.73;;;5.10;1.00;;;;;;5013714;28;20547;-70
2021/01/12 08:06:48;;;;;;;18.17;17.00;;;5.10;1.00;;;;;;5014929;28;20194;-71
2021/01/12 08:09:21;;;;;;;21.23;19.80;;;5.10;1.00;;;;;;5016827;28;20234;-71
2021/01/12 08:11:48;;;;;;;16.73;15.77;;;5.10;1.00;;;;;;5017538;28;20511;-71
2021/01/12 08:14:14;;;;;;;24.20;21.80;;;5.10;1.00;;;;;;5017207;28;20174;-71
2021/01/12 08:16:45;;;;;;;22.03;20.60;;;5.20;1.00;;;;;;5016909;28;20179;-71
2021/01/12 08:19:10;;;;;;;20.90;20.00;;;5.10;1.00;;;;;;5017227;28;20187;-69
2021/01/12 08:21:40;;;;;;;23.53;22.00;;;5.10;1.00;;;;;;5017314;28;20503;-69
2021/01/12 08:24:07;;;;;;;21.85;20.20;;;5.10;1.00;;;;;;5016680;28;20167;-69
2021/01/12 08:26:33;;;;;;;19.98;18.40;;;5.20;1.00;;;;;;5016646;28;20221;-69
2021/01/12 08:28:59;;;;;;;25.87;23.90;;;5.20;1.00;;;;;;5014605;28;20282;-69
2021/01/12 08:31:25;;;;;;;25.08;22.50;;;5.20;1.00;;;;;;5016788;28;20167;-70
2021/01/12 08:33:55;;;;;;;27.87;18.50;;;5.20;1.00;;;;;;5016899;28;20179;-69
2021/01/12 08:36:26;;;;;;;20.92;19.08;;;5.20;1.00;;;;;;5016593;28;20172;-70
2021/01/12 08:38:55;;;;;;;26.25;24.15;;;5.20;1.00;;;;;;5016711;28;20225;-70
2021/01/12 08:41:22;;;;;;;21.55;20.10;;;5.30;1.00;;;;;;5016271;28;20548;-70
2021/01/12 08:43:56;;;;;;;25.30;23.85;;;5.30;1.00;;;;;;4998038;28;20184;-70
2021/01/12 08:46:27;;;;;;;24.30;22.88;;;5.30;1.00;;;;;;4996736;28;20294;-70
2021/01/12 08:48:52;;;;;;;20.90;19.90;;;5.40;1.00;;;;;;4996781;28;20294;-70
2021/01/12 08:51:19;;;;;;;17.20;16.20;;;5.40;1.00;;;;;;4997243;28;20600;-70
2021/01/12 08:53:52;;;;;;;19.60;18.35;;;5.50;1.00;;;;;;4996950;28;20217;-70
2021/01/12 08:56:17;;;;;;;19.38;17.58;;;5.50;1.00;;;;;;4997099;28;20187;-70
2021/01/12 08:58:43;;;;;;;23.80;22.53;;;5.60;1.00;;;;;;4996801;28;20196;-70
2021/01/12 09:01:11;;;;;;;21.17;19.17;;;5.60;1.00;;;;;;4995691;28;20186;-69
2021/01/12 09:03:41;;;;;;;22.67;21.42;;;5.60;1.00;;;;;;4997310;28;20418;-69
2021/01/12 09:06:18;;;;;;;21.63;20.42;;;5.60;1.00;;;;;;4996844;28;20577;-68
2021/01/12 09:08:43;;;;;;;23.77;22.17;;;5.70;1.00;;;;;;4996135;28;20210;-69
2021/01/12 09:11:10;;;;;;;27.37;25.60;;;5.70;1.00;;;;;;4996560;28;20168;-69
2021/01/12 09:13:36;;;;;;;27.35;25.77;;;5.70;1.00;;;;;;4996284;28;20173;-69
2021/01/12 09:16:02;;;;;;;26.47;24.90;;;5.70;1.00;;;;;;4995085;28;20180;-69
2021/01/12 09:18:27;;;;;;;22.57;20.77;;;5.80;1.00;;;;;;4995862;28;20695;-69
2021/01/12 09:20:55;;;;;;;18.80;17.90;;;5.80;1.00;;;;;;4996588;28;20510;-69
2021/01/12 09:23:21;;;;;;;22.48;21.05;;;5.80;1.00;;;;;;4996411;28;20176;-69
2021/01/12 09:25:54;;;;;;;20.05;18.65;;;5.80;1.00;;;;;;4996312;28;20172;-68
2021/01/12 09:28:25;;;;;;;22.73;21.45;;;5.80;1.00;;;;;;4996149;28;20191;-68
2021/01/12 09:30:51;;;;;;;24.00;21.90;;;5.90;1.00;;;;;;4996115;28;20160;-69
2021/01/12 09:33:24;;;;;;;20.55;19.55;;;5.90;1.00;;;;;;4996065;28;20573;-69
2021/01/12 09:36:08;;;;;;;17.63;16.73;;;5.90;1.00;;;;;;4995968;28;20516;-69
2021/01/12 09:38:38;;;;;;;20.05;19.15;;;5.90;1.00;;;;;;4995998;28;20195;-69
2021/01/12 09:41:04;;;;;;;21.65;20.55;;;5.90;1.00;;;;;;4995928;28;20697;-68
2021/01/12 09:43:30;;;;;;;21.40;20.00;;;5.90;1.00;;;;;;4996441;28;20200;-69
2021/01/12 09:45:56;;;;;;;19.00;17.67;;;5.90;1.00;;;;;;4994217;28;20180;-68
2021/01/12 09:48:23;;;;;;;19.70;18.38;;;6.00;1.00;;;;;;4998033;28;20218;-68
2021/01/12 09:50:48;;;;;;;23.77;22.20;;;6.00;1.00;;;;;;4993431;28;20183;-69
2021/01/12 09:53:15;;;;;;;18.23;16.87;;;6.00;1.00;;;;;;4994218;28;20489;-68
2021/01/12 09:55:41;;;;;;;18.85;17.63;;;6.00;1.00;;;;;;4992808;28;20422;-68
2021/01/12 09:58:07;;;;;;;21.40;20.05;;;6.10;1.00;;;;;;4993240;28;20218;-69
2021/01/12 10:00:33;;;;;;;22.83;21.15;;;6.10;1.00;;;;;;4994011;28;20179;-69
2021/01/12 10:02:58;;;;;;;20.77;19.33;;;6.10;1.00;;;;;;4993579;28;20183;-69
2021/01/12 10:05:24;;;;;;;18.23;16.50;;;6.10;1.00;;;;;;4999678;28;20634;-69
2021/01/12 10:07:50;;;;;;;18.47;16.53;;;6.10;1.00;;;;;;5013115;28;20187;-68
2021/01/12 10:10:16;;;;;;;22.33;20.73;;;6.10;1.00;;;;;;5038888;28;20203;-68
2021/01/12 10:12:42;;;;;;;20.15;18.38;;;6.00;1.00;;;;;;5008086;28;20186;-69
2021/01/12 10:15:08;;;;;;;23.80;21.87;;;5.90;1.00;;;;;;4994469;28;20549;-68
2021/01/12 10:17:34;;;;;;;22.30;21.13;;;5.80;1.00;;;;;;4997144;28;20218;-68
2021/01/12 10:20:00;;;;;;;27.45;26.10;;;5.80;1.00;;;;;;5003890;28;20883;-68
2021/01/12 10:22:26;;;;;;;29.20;26.80;;;5.70;1.00;;;;;;4993561;28;20274;-68
2021/01/12 10:24:52;;;;;;;23.40;22.05;;;5.60;1.00;;;;;;4993549;28;20314;-68
2021/01/12 10:27:19;;;;;;;25.30;23.92;;;5.50;1.00;;;;;;4993343;28;20184;-68
2021/01/12 10:29:45;;;;;;;22.52;20.80;;;5.50;1.00;;;;;;4993221;28;20309;-68
2021/01/12 10:32:12;;;;;;;18.60;17.50;;;5.40;1.00;;;;;;4993122;28;20674;-68
2021/01/12 10:34:38;;;;;;;23.38;22.38;;;5.40;1.00;;;;;;4993669;28;20756;-68
2021/01/12 10:37:04;;;;;;;21.90;21.00;;;5.40;1.00;;;;;;4993171;28;20178;-68
2021/01/12 10:39:30;;;;;;;26.10;24.53;;;5.40;1.00;;;;;;4991568;28;20504;-68
2021/01/12 10:41:55;;;;;;;21.93;20.37;;;5.40;1.00;;;;;;4992909;28;20440;-69
2021/01/12 10:44:22;;;;;;;25.00;23.57;;;5.50;1.00;;;;;;4993386;28;20253;-68
2021/01/12 10:46:55;;;;;;;24.95;22.77;;;5.40;1.00;;;;;;4993391;28;20665;-69
2021/01/12 10:49:20;;;;;;;28.05;26.50;;;5.50;1.00;;;;;;4993152;28;20235;-69
2021/01/12 10:51:46;;;;;;;24.47;23.23;;;5.50;1.00;;;;;;4993066;28;20192;-69
2021/01/12 10:54:11;;;;;;;22.77;20.63;;;5.50;1.00;;;;;;4992960;28;20164;-68
2021/01/12 10:56:37;;;;;;;20.87;19.17;;;5.60;1.00;;;;;;4993097;28;20179;-68
2021/01/12 10:59:03;;;;;;;26.70;25.37;;;5.50;1.00;;;;;;4993243;28;20238;-68
2021/01/12 11:01:29;;;;;;;18.87;17.67;;;5.60;1.00;;;;;;4993499;28;20415;-68
2021/01/12 11:03:55;;;;;;;23.52;21.95;;;5.60;1.00;;;;;;4993154;28;20168;-69
2021/01/12 11:06:21;;;;;;;23.07;21.37;;;5.70;1.00;;;;;;4993128;28;20199;-69
2021/01/12 11:08:48;;;;;;;24.23;23.05;;;5.80;1.00;;;;;;4992711;28;20207;-68
2021/01/12 11:11:19;;;;;;;30.98;29.02;;;5.80;1.00;;;;;;4993104;28;20176;-69
2021/01/12 11:13:45;;;;;;;24.65;22.70;;;5.80;1.00;;;;;;4993234;28;20167;-68
2021/01/12 11:16:15;;;;;;;23.93;22.67;;;5.90;1.00;;;;;;4992727;28;20171;-68
2021/01/12 11:18:40;;;;;;;15.73;14.40;;;6.00;1.00;;;;;;4992879;28;20196;-68
2021/01/12 11:21:07;;;;;;;19.70;18.40;;;6.10;1.00;;;;;;4993318;28;20179;-69
2021/01/12 11:23:33;;;;;;;28.80;26.70;;;6.20;1.00;;;;;;4993048;28;20172;-68
2021/01/12 11:25:58;;;;;;;21.97;20.77;;;6.20;1.00;;;;;;5001199;28;20171;-69
2021/01/12 11:28:24;;;;;;;23.00;22.10;;;6.10;1.00;;;;;;4992965;28;20608;-68
2021/01/12 11:30:49;;;;;;;22.83;21.57;;;6.10;1.00;;;;;;5008807;28;20258;-69
2021/01/12 11:33:15;;;;;;;20.73;19.93;;;6.20;1.00;;;;;;4993121;28;20180;-69
2021/01/12 11:35:41;;;;;;;22.37;20.90;;;6.20;1.00;;;;;;4994637;28;20171;-68
2021/01/12 11:38:06;;;;;;;22.60;21.50;;;6.20;1.00;;;;;;5002005;28;20594;-69
2021/01/12 11:40:32;;;;;;;26.30;25.07;;;6.30;1.00;;;;;;4995422;28;20176;-69
2021/01/12 11:42:58;;;;;;;25.20;24.17;;;6.20;1.00;;;;;;4994926;28;20168;-70
2021/01/12 11:45:24;;;;;;;24.85;22.80;;;6.20;1.00;;;;;;4995918;28;20626;-69
2021/01/12 11:47:49;;;;;;;19.90;18.90;;;6.20;1.00;;;;;;4998060;28;20184;-69
2021/01/12 11:50:15;;;;;;;19.00;18.00;;;6.20;1.00;;;;;;5003642;28;20245;-69
2021/01/12 11:52:41;;;;;;;23.67;22.53;;;6.20;1.00;;;;;;5015541;28;20175;-68
2021/01/12 11:55:07;;;;;;;20.27;19.33;;;6.10;1.00;;;;;;5016040;28;20176;-68
2021/01/12 11:57:33;;;;;;;21.88;20.63;;;6.10;1.00;;;;;;5015792;28;20406;-68
2021/01/12 11:59:58;;;;;;;23.70;22.50;;;6.00;1.00;;;;;;5015926;28;20231;-68
2021/01/12 12:02:24;;;;;;;22.07;20.60;;;6.00;1.00;;;;;;5015695;28;20198;-68
2021/01/12 12:04:49;;;;;;;21.43;20.10;;;6.00;1.00;;;;;;5015798;28;20179;-68
2021/01/12 12:07:15;;;;;;;21.07;19.83;;;5.80;1.00;;;;;;5046979;28;20237;-68
2021/01/12 12:09:40;;;;;;;25.00;22.83;;;5.80;1.00;;;;;;5015399;28;20194;-68
2021/01/12 12:12:06;;;;;;;23.80;22.70;;;5.80;1.00;;;;;;5015481;28;20168;-68
2021/01/12 12:14:32;;;;;;;23.07;21.47;;;5.70;1.00;;;;;;5015268;28;20174;-68
2021/01/12 12:16:58;;;;;;;23.20;21.80;;;5.60;1.00;;;;;;5015375;28;20892;-69
2021/01/12 12:19:28;;;;;;;25.77;24.53;;;5.60;1.00;;;;;;5014060;28;20278;-69
2021/01/12 12:21:56;;;;;;;18.88;17.77;;;5.50;1.00;;;;;;5014148;28;20169;-68
2021/01/12 12:24:24;;;;;;;21.60;20.30;;;5.60;1.00;;;;;;5015403;28;20175;-69
2021/01/12 12:26:51;;;;;;;13.02;12.38;;;5.50;1.00;;;;;;5015358;28;20172;-69
2021/01/12 12:29:17;;;;;;;18.52;17.55;;;5.50;1.00;;;;;;5015080;28;20582;-68
2021/01/12 12:31:43;;;;;;;15.00;14.10;;;5.50;1.00;;;;;;5047484;28;20179;-69
2021/01/12 12:34:09;;;;;;;21.70;20.57;;;5.50;1.00;;;;;;5015135;28;20175;-69
2021/01/12 12:36:35;;;;;;;18.00;16.77;;;5.50;1.00;;;;;;5015285;28;20413;-68
2021/01/12 12:39:01;;;;;;;23.67;22.00;;;5.60;1.00;;;;;;5047143;28;20199;-69
2021/01/12 12:41:31;;;;;;;22.40;21.20;;;5.50;1.00;;;;;;5015052;28;20418;-68
2021/01/12 12:43:58;;;;;;;18.15;17.55;;;5.60;1.00;;;;;;5015264;28;20171;-69
2021/01/12 12:46:24;;;;;;;21.02;19.92;;;5.60;1.00;;;;;;5046791;28;20175;-69
2021/01/12 12:48:50;;;;;;;15.60;14.47;;;5.70;1.00;;;;;;5014589;28;20210;-68